Time;durP1;ratioP1;P1;durP2;ratioP2;P2;SDS_P1;SDS_P2;PMS_P1;PMS_P2;Temp;Humidity;BMP_temperature;BMP_pressure;BME280_temperature;BME280_humidity;BME280_pressure;Samples;Min_cycle;Max_cycle;Signal;HPM_P1;HPM_P2
2022/08/01 00:00:12;;;;;;;2.20;2.10;;;26.30;24.80;;;;;;10445077;28;20217;-75
2022/08/01 00:05:15;;;;;;;2.40;2.20;;;26.30;24.60;;;;;;10441336;28;20641;-75
2022/08/01 00:10:20;;;;;;;2.37;2.27;;;26.40;24.60;;;;;;10445852;28;20721;-75
2022/08/01 00:15:23;;;;;;;2.20;2.10;;;26.40;24.70;;;;;;10444914;28;20233;-75
2022/08/01 00:20:27;;;;;;;3.10;2.27;;;26.40;24.40;;;;;;10445050;28;20606;-75
2022/08/01 00:25:31;;;;;;;2.10;2.00;;;26.40;24.50;;;;;;10443374;28;20232;-76
2022/08/01 00:30:36;;;;;;;2.20;2.10;;;26.40;24.70;;;;;;10437982;28;20295;-75
2022/08/01 00:35:39;;;;;;;2.10;2.00;;;26.30;24.40;;;;;;10444217;28;20724;-75
2022/08/01 00:40:44;;;;;;;2.40;2.20;;;26.30;24.40;;;;;;10434930;28;20232;-75
2022/08/01 00:45:47;;;;;;;2.40;2.10;;;26.30;24.70;;;;;;10440514;28;20229;-75
2022/08/01 00:50:51;;;;;;;3.13;2.30;;;26.20;24.50;;;;;;10438770;28;20221;-75
2022/08/01 00:55:55;;;;;;;2.13;1.97;;;26.20;24.50;;;;;;10439131;28;20728;-75
2022/08/01 01:00:59;;;;;;;2.07;1.97;;;26.10;24.50;;;;;;10434498;28;20216;-75
2022/08/01 01:06:20;;;;;;;2.23;2.10;;;26.00;24.50;;;;;;10438526;28;20226;-75
2022/08/01 01:11:29;;;;;;;2.30;2.10;;;26.00;24.80;;;;;;10448046;28;20231;-75
2022/08/01 01:16:35;;;;;;;2.60;1.80;;;25.90;24.70;;;;;;10430909;28;20225;-75
2022/08/01 01:22:00;;;;;;;2.37;2.13;;;25.90;24.70;;;;;;10437695;28;20239;-74
2022/08/01 01:27:11;;;;;;;2.50;2.30;;;25.80;24.80;;;;;;10431293;28;20225;-75
2022/08/01 01:32:23;;;;;;;3.03;2.20;;;25.70;25.00;;;;;;10430741;28;20713;-75
2022/08/01 01:37:35;;;;;;;3.97;2.30;;;25.70;25.00;;;;;;10444898;28;20232;-74
2022/08/01 01:42:39;;;;;;;2.17;2.00;;;25.60;24.90;;;;;;10440283;28;20244;-75
2022/08/01 01:47:46;;;;;;;2.47;2.27;;;25.50;24.90;;;;;;10446261;28;20235;-74
2022/08/01 01:52:50;;;;;;;2.40;2.20;;;25.50;25.10;;;;;;10440084;28;20229;-76
2022/08/01 01:57:56;;;;;;;2.10;1.90;;;25.40;25.00;;;;;;10445637;28;20220;-75
2022/08/01 02:03:03;;;;;;;2.20;2.00;;;25.40;24.90;;;;;;10439754;28;20669;-75
2022/08/01 02:08:08;;;;;;;2.37;2.17;;;25.30;25.00;;;;;;10431863;28;20225;-75
2022/08/01 02:13:11;;;;;;;1.90;1.80;;;25.30;24.90;;;;;;10434105;28;20563;-75
2022/08/01 02:18:17;;;;;;;2.20;2.00;;;25.30;24.90;;;;;;10425889;28;20229;-75
2022/08/01 02:23:28;;;;;;;2.43;2.03;;;25.20;25.00;;;;;;10440420;28;20229;-75
2022/08/01 02:28:35;;;;;;;2.13;2.03;;;25.10;25.10;;;;;;10438938;28;20225;-75
2022/08/01 02:33:42;;;;;;;2.37;2.10;;;25.10;25.20;;;;;;10443271;28;20232;-75
2022/08/01 02:38:47;;;;;;;2.30;2.10;;;25.00;25.20;;;;;;10437618;28;20693;-75
2022/08/01 02:43:53;;;;;;;2.20;2.00;;;25.00;25.20;;;;;;10435102;28;20759;-74
2022/08/01 02:49:01;;;;;;;2.00;1.80;;;24.90;25.20;;;;;;10436890;28;20224;-75
2022/08/01 02:54:07;;;;;;;2.23;2.10;;;24.90;25.20;;;;;;10437363;28;20279;-75
2022/08/01 02:59:15;;;;;;;2.40;2.20;;;24.90;25.20;;;;;;10441125;28;20224;-75
2022/08/01 03:04:27;;;;;;;2.10;1.90;;;24.90;25.30;;;;;;10440917;28;20259;-75
2022/08/01 03:09:34;;;;;;;2.80;2.00;;;24.90;25.30;;;;;;10440080;28;20253;-76
2022/08/01 03:14:41;;;;;;;2.73;2.07;;;24.90;25.40;;;;;;10437380;28;20237;-75
2022/08/01 03:19:47;;;;;;;2.20;2.10;;;24.80;25.20;;;;;;10448134;28;20596;-75
2022/08/01 03:24:52;;;;;;;3.17;2.30;;;24.80;25.40;;;;;;10430507;28;20312;-75
2022/08/01 03:29:58;;;;;;;2.47;2.27;;;24.80;25.40;;;;;;10443566;28;20229;-76
2022/08/01 03:35:03;;;;;;;2.10;2.00;;;24.70;25.30;;;;;;10449246;28;20263;-76
2022/08/01 03:40:09;;;;;;;2.10;2.00;;;24.70;25.40;;;;;;10437975;28;20225;-75
2022/08/01 03:45:19;;;;;;;2.53;2.13;;;24.70;25.40;;;;;;10431160;28;20709;-75
2022/08/01 03:50:26;;;;;;;2.23;2.13;;;24.70;25.50;;;;;;10443935;28;20224;-75
2022/08/01 03:55:32;;;;;;;2.57;2.00;;;24.60;25.50;;;;;;10437679;28;20233;-75
2022/08/01 04:00:38;;;;;;;2.00;1.90;;;24.60;25.50;;;;;;10443464;28;20225;-75
2022/08/01 04:05:44;;;;;;;2.70;1.90;;;24.50;25.70;;;;;;10441188;28;20697;-75
2022/08/01 04:10:47;;;;;;;2.40;2.20;;;24.50;25.80;;;;;;10450880;28;20255;-76
2022/08/01 04:15:52;;;;;;;2.10;2.00;;;24.40;25.60;;;;;;10451306;28;20319;-75
2022/08/01 04:20:56;;;;;;;2.90;2.00;;;24.40;25.70;;;;;;10447015;28;20218;-76
2022/08/01 04:26:04;;;;;;;2.40;2.20;;;24.30;26.00;;;;;;10443215;28;20226;-76
2022/08/01 04:31:11;;;;;;;2.23;1.90;;;24.30;26.20;;;;;;10440759;28;20228;-75
2022/08/01 04:36:17;;;;;;;2.30;2.10;;;24.30;26.30;;;;;;10439510;28;20235;-76
2022/08/01 04:41:22;;;;;;;2.30;2.10;;;24.20;26.30;;;;;;10431434;28;20236;-76
2022/08/01 04:46:25;;;;;;;2.60;2.40;;;24.20;26.30;;;;;;10440773;28;20248;-75
2022/08/01 04:51:30;;;;;;;3.10;2.40;;;24.10;26.30;;;;;;10442612;28;20225;-75
2022/08/01 04:56:33;;;;;;;1.97;1.87;;;24.10;26.60;;;;;;10440583;28;20243;-76
2022/08/01 05:01:37;;;;;;;2.93;2.10;;;24.10;26.60;;;;;;10440228;28;20227;-77
2022/08/01 05:06:41;;;;;;;2.33;2.20;;;24.10;26.50;;;;;;10448993;28;20221;-74
2022/08/01 05:11:45;;;;;;;2.20;2.10;;;24.10;26.80;;;;;;10433255;28;20235;-74
2022/08/01 05:16:48;;;;;;;2.27;2.10;;;24.10;26.80;;;;;;10432303;28;20229;-75
2022/08/01 05:21:52;;;;;;;2.03;1.83;;;24.20;26.80;;;;;;10449751;28;20235;-74
2022/08/01 05:27:02;;;;;;;4.13;2.27;;;24.20;26.90;;;;;;10440749;28;20274;-75
2022/08/01 05:32:06;;;;;;;2.63;2.23;;;24.30;27.10;;;;;;10444551;28;20224;-74
2022/08/01 05:37:11;;;;;;;2.80;2.30;;;24.30;27.10;;;;;;10432633;28;20227;-75
2022/08/01 05:42:14;;;;;;;2.97;2.50;;;24.30;27.30;;;;;;10430583;28;20241;-74
2022/08/01 05:47:18;;;;;;;2.40;2.30;;;24.30;26.90;;;;;;10431605;28;20233;-75
2022/08/01 05:52:24;;;;;;;2.77;2.30;;;24.40;27.10;;;;;;10427253;28;20253;-75
2022/08/01 05:57:27;;;;;;;2.60;2.10;;;24.50;27.30;;;;;;10428539;28;20311;-76
2022/08/01 06:02:31;;;;;;;2.33;2.13;;;24.60;27.20;;;;;;10439358;28;20220;-74
2022/08/01 06:07:36;;;;;;;2.57;2.37;;;24.70;27.20;;;;;;10416271;28;20236;-74
2022/08/01 06:12:41;;;;;;;2.53;2.33;;;24.80;27.20;;;;;;10405041;28;20229;-75
2022/08/01 06:17:44;;;;;;;2.70;2.50;;;24.90;27.30;;;;;;10406197;28;20232;-74
2022/08/01 06:22:49;;;;;;;3.13;2.37;;;24.90;27.20;;;;;;10408816;28;20733;-74
2022/08/01 06:27:54;;;;;;;4.27;2.40;;;25.00;27.40;;;;;;10409170;28;20226;-73
2022/08/01 06:32:58;;;;;;;2.63;2.43;;;25.00;27.20;;;;;;10415995;28;20225;-73
2022/08/01 06:38:03;;;;;;;3.50;2.60;;;25.00;27.20;;;;;;10418391;28;20233;-72
2022/08/01 06:43:06;;;;;;;2.63;2.40;;;25.00;27.60;;;;;;10416594;28;20222;-73
2022/08/01 06:48:10;;;;;;;2.80;2.50;;;25.00;27.50;;;;;;10415846;28;20236;-73
2022/08/01 06:53:14;;;;;;;3.20;2.57;;;25.10;27.60;;;;;;10415357;28;20230;-73
2022/08/01 06:58:18;;;;;;;3.67;2.40;;;25.10;27.90;;;;;;10415383;28;20736;-73
2022/08/01 07:03:22;;;;;;;3.63;2.40;;;25.20;27.40;;;;;;10451046;28;20233;-73
2022/08/01 07:08:26;;;;;;;3.00;2.80;;;25.20;27.50;;;;;;10456311;28;20221;-73
2022/08/01 07:13:30;;;;;;;2.63;2.43;;;25.30;27.80;;;;;;10456221;28;20258;-73
2022/08/01 07:18:47;;;;;;;3.47;2.60;;;25.40;27.50;;;;;;10457681;28;20717;-73
2022/08/01 07:23:52;;;;;;;2.63;2.40;;;25.40;27.60;;;;;;10457279;28;20224;-73
2022/08/01 07:28:58;;;;;;;2.50;2.30;;;25.40;27.70;;;;;;10455892;28;20286;-73
2022/08/01 07:34:01;;;;;;;2.47;2.27;;;25.50;27.60;;;;;;10455564;28;20224;-73
2022/08/01 07:39:06;;;;;;;2.53;2.40;;;25.60;27.80;;;;;;10454874;28;20668;-73
2022/08/01 07:44:09;;;;;;;3.87;2.20;;;25.80;27.90;;;;;;10430238;28;20229;-73
2022/08/01 07:49:13;;;;;;;2.27;2.17;;;25.90;27.90;;;;;;10413505;28;20226;-73
2022/08/01 07:54:17;;;;;;;2.63;2.13;;;26.10;27.90;;;;;;10423042;28;20255;-73
2022/08/01 07:59:22;;;;;;;2.47;2.10;;;26.20;27.80;;;;;;10418251;28;20233;-73
2022/08/01 08:04:29;;;;;;;2.40;2.20;;;26.40;27.80;;;;;;10412924;28;20253;-73
2022/08/01 08:09:34;;;;;;;2.60;2.40;;;26.50;27.70;;;;;;10413443;28;20236;-73
2022/08/01 08:14:40;;;;;;;2.77;2.27;;;26.60;27.70;;;;;;10413521;28;20233;-73
2022/08/01 08:19:44;;;;;;;3.40;2.37;;;26.80;27.60;;;;;;10412582;28;20217;-73
2022/08/01 08:24:48;;;;;;;2.63;2.43;;;26.90;27.60;;;;;;10413129;28;20225;-73
2022/08/01 08:29:52;;;;;;;2.50;2.30;;;27.00;27.70;;;;;;10411954;28;20226;-73
2022/08/01 08:34:55;;;;;;;2.10;2.00;;;27.20;27.70;;;;;;10410396;28;20240;-75
2022/08/01 08:39:59;;;;;;;2.17;2.07;;;27.30;27.60;;;;;;10423788;28;20236;-76
2022/08/01 08:45:02;;;;;;;2.33;2.13;;;27.50;27.40;;;;;;10442314;28;20235;-76
2022/08/01 08:50:07;;;;;;;2.70;2.50;;;27.70;27.40;;;;;;10415891;28;20226;-76
2022/08/01 08:55:14;;;;;;;2.40;2.30;;;27.80;27.00;;;;;;10432452;28;20241;-78
2022/08/01 09:00:17;;;;;;;2.53;2.33;;;27.90;27.10;;;;;;10434908;28;20240;-78
2022/08/01 09:05:25;;;;;;;2.50;2.40;;;28.10;26.90;;;;;;10443776;28;20236;-77
2022/08/01 09:10:42;;;;;;;2.37;2.23;;;28.10;26.70;;;;;;10444010;28;20221;-79
2022/08/01 09:15:47;;;;;;;2.20;2.10;;;28.20;26.30;;;;;;10437272;28;20239;-78
2022/08/01 09:20:50;;;;;;;2.43;2.30;;;28.30;26.60;;;;;;10437439;28;20343;-77
2022/08/01 09:25:56;;;;;;;2.23;2.13;;;28.40;26.20;;;;;;10426981;28;20925;-77
2022/08/01 09:31:07;;;;;;;2.27;2.17;;;28.50;25.70;;;;;;10423217;28;20692;-76
2022/08/01 09:36:11;;;;;;;3.60;2.10;;;28.60;25.30;;;;;;10423286;28;20251;-75
2022/08/01 09:41:28;;;;;;;2.00;1.90;;;28.60;25.80;;;;;;10431933;28;20285;-76
2022/08/01 09:46:51;;;;;;;1.97;1.87;;;28.80;25.90;;;;;;10438466;28;20239;-76
2022/08/01 09:51:54;;;;;;;2.20;2.10;;;29.00;25.40;;;;;;10442771;28;20718;-76
2022/08/01 09:57:13;;;;;;;1.83;1.73;;;29.20;25.30;;;;;;10439063;28;20684;-77
2022/08/01 10:02:29;;;;;;;1.90;1.80;;;29.30;25.50;;;;;;10440197;28;20233;-77
2022/08/01 10:07:32;;;;;;;2.10;2.00;;;29.40;25.40;;;;;;10429211;28;20777;-76
2022/08/01 10:12:48;;;;;;;2.10;2.00;;;29.60;24.80;;;;;;10442253;28;20274;-76
2022/08/01 10:17:55;;;;;;;3.20;1.93;;;29.80;24.30;;;;;;10434844;28;20724;-76
2022/08/01 10:23:00;;;;;;;2.00;1.90;;;30.00;24.20;;;;;;10439954;28;20279;-76
2022/08/01 10:28:16;;;;;;;2.10;2.00;;;30.10;23.90;;;;;;10438567;28;20736;-76
2022/08/01 10:33:26;;;;;;;2.53;2.33;;;30.20;22.90;;;;;;10413349;28;20229;-78
2022/08/01 10:38:49;;;;;;;2.17;2.07;;;30.20;23.50;;;;;;10429503;28;20227;-77
2022/08/01 10:43:55;;;;;;;2.50;2.40;;;30.10;23.50;;;;;;10437498;28;20229;-77
2022/08/01 10:49:10;;;;;;;2.53;2.33;;;30.00;23.40;;;;;;10441404;28;20236;-77
2022/08/01 10:54:14;;;;;;;2.13;2.00;;;29.90;23.30;;;;;;10439063;28;20232;-77
2022/08/01 10:59:25;;;;;;;1.67;1.60;;;29.80;23.80;;;;;;10437601;28;20230;-77
2022/08/01 11:04:55;;;;;;;1.77;1.67;;;29.80;23.40;;;;;;10433576;28;20233;-75
2022/08/01 11:10:04;;;;;;;1.57;1.47;;;30.00;23.40;;;;;;10420374;28;20252;-74
2022/08/01 11:15:25;;;;;;;1.70;1.60;;;30.20;23.40;;;;;;10434642;28;20579;-76
2022/08/01 11:20:34;;;;;;;1.63;1.53;;;30.30;23.40;;;;;;10441667;28;20244;-77
2022/08/01 11:26:09;;;;;;;1.27;1.27;;;30.40;22.60;;;;;;10426381;28;20327;-80
2022/08/01 11:31:31;;;;;;;1.87;1.47;;;30.40;22.40;;;;;;10451823;28;20225;-79
2022/08/01 11:36:40;;;;;;;1.57;1.47;;;30.50;22.30;;;;;;10437291;28;20225;-77
2022/08/01 11:42:19;;;;;;;1.77;1.67;;;30.50;22.70;;;;;;10430813;28;20231;-77
2022/08/01 11:47:46;;;;;;;1.80;1.70;;;30.60;22.50;;;;;;10438616;28;20741;-77
2022/08/01 11:52:58;;;;;;;1.70;1.20;;;30.80;21.90;;;;;;10443028;28;20260;-79
2022/08/01 11:58:03;;;;;;;1.60;1.23;;;30.90;21.60;;;;;;10426180;28;20217;-76
2022/08/01 12:03:09;;;;;;;1.60;1.50;;;30.90;21.60;;;;;;10428073;28;20608;-78
2022/08/01 12:08:26;;;;;;;2.43;1.57;;;30.80;21.50;;;;;;10423624;28;20302;-77
2022/08/01 12:13:30;;;;;;;1.70;1.60;;;30.70;21.50;;;;;;10425108;28;20268;-78
2022/08/01 12:18:41;;;;;;;1.77;1.60;;;30.60;21.50;;;;;;10438712;28;20243;-78
2022/08/01 12:23:45;;;;;;;1.50;1.40;;;30.60;21.40;;;;;;10451272;28;20316;-78
2022/08/01 12:28:48;;;;;;;1.53;1.40;;;30.70;21.50;;;;;;10449307;28;20733;-79
2022/08/01 12:33:52;;;;;;;1.50;1.40;;;30.80;21.50;;;;;;10456857;28;20229;-78
2022/08/01 12:38:59;;;;;;;2.50;1.60;;;30.70;21.50;;;;;;10456764;28;20229;-78
2022/08/01 12:44:02;;;;;;;1.83;1.60;;;30.70;21.50;;;;;;10457704;28;20229;-78
2022/08/01 12:49:07;;;;;;;1.60;1.50;;;30.60;21.40;;;;;;10456360;28;20231;-78
2022/08/01 12:54:10;;;;;;;1.63;1.40;;;30.60;21.40;;;;;;10457463;28;20235;-79
2022/08/01 12:59:24;;;;;;;1.53;1.43;;;30.70;21.50;;;;;;10451145;28;20220;-78
2022/08/01 13:04:29;;;;;;;2.60;1.57;;;30.70;20.70;;;;;;10414849;28;20257;-78
2022/08/01 13:09:33;;;;;;;1.97;1.40;;;30.60;21.40;;;;;;10413859;28;20248;-78
2022/08/01 13:14:36;;;;;;;2.07;1.70;;;30.50;21.40;;;;;;10419378;28;20225;-77
2022/08/01 13:19:47;;;;;;;2.50;1.70;;;30.50;21.40;;;;;;10430971;28;20239;-77
2022/08/01 13:24:50;;;;;;;2.73;1.60;;;30.40;21.30;;;;;;10432229;28;20239;-77
2022/08/01 13:29:53;;;;;;;1.60;1.50;;;30.40;21.30;;;;;;10430219;28;20229;-77
2022/08/01 13:35:04;;;;;;;1.20;1.20;;;30.60;21.40;;;;;;10434682;28;20287;-77
2022/08/01 13:40:09;;;;;;;1.60;1.50;;;30.60;21.40;;;;;;10430691;28;20213;-77
2022/08/01 13:45:13;;;;;;;1.67;1.30;;;30.70;21.30;;;;;;10429926;28;20244;-77
2022/08/01 13:50:18;;;;;;;1.50;1.40;;;30.80;21.50;;;;;;10440049;28;20239;-77
2022/08/01 13:55:21;;;;;;;1.70;1.60;;;30.80;21.50;;;;;;10451764;28;20236;-77
2022/08/01 14:00:25;;;;;;;1.53;1.43;;;30.80;21.10;;;;;;10452619;28;20733;-77
2022/08/01 14:05:29;;;;;;;1.50;1.40;;;30.80;20.90;;;;;;10449023;28;20610;-79
2022/08/01 14:10:33;;;;;;;1.80;1.70;;;30.80;21.30;;;;;;10436392;28;20328;-78
2022/08/01 14:15:37;;;;;;;1.63;1.53;;;30.80;21.10;;;;;;10435268;28;20693;-79
2022/08/01 14:20:43;;;;;;;1.70;1.60;;;30.90;21.10;;;;;;10441758;28;20308;-78
2022/08/01 14:25:46;;;;;;;1.60;1.50;;;31.00;20.70;;;;;;10435388;28;20228;-78
2022/08/01 14:31:09;;;;;;;1.70;1.60;;;31.00;20.70;;;;;;10441216;28;20225;-79
2022/08/01 14:36:13;;;;;;;1.90;1.80;;;31.10;21.20;;;;;;10440083;28;20647;-79
2022/08/01 14:41:33;;;;;;;2.20;2.00;;;31.10;20.10;;;;;;10441773;28;20251;-80
2022/08/01 14:46:37;;;;;;;1.80;1.70;;;31.10;20.50;;;;;;10441301;28;20235;-79
2022/08/01 14:52:00;;;;;;;1.80;1.70;;;31.10;20.50;;;;;;10442680;28;20244;-79
2022/08/01 14:57:04;;;;;;;2.17;2.03;;;31.20;20.40;;;;;;10444169;28;20227;-79
2022/08/01 15:02:10;;;;;;;2.07;1.97;;;31.20;20.30;;;;;;10442073;28;20233;-79
2022/08/01 15:07:15;;;;;;;1.90;1.80;;;31.10;20.50;;;;;;10448509;28;20225;-79
2022/08/01 15:12:18;;;;;;;2.07;1.97;;;31.10;19.90;;;;;;10441664;28;20236;-79
2022/08/01 15:17:24;;;;;;;1.70;1.60;;;31.10;20.20;;;;;;10447268;28;20234;-79
2022/08/01 15:22:29;;;;;;;1.87;1.77;;;31.10;20.10;;;;;;10441701;28;20232;-79
2022/08/01 15:27:32;;;;;;;2.67;2.10;;;31.10;20.10;;;;;;10445130;28;20225;-79
2022/08/01 15:32:35;;;;;;;2.03;1.93;;;31.00;20.40;;;;;;10443291;28;20233;-78
2022/08/01 15:37:41;;;;;;;2.10;1.90;;;30.90;20.70;;;;;;10440281;28;20325;-79
2022/08/01 15:42:46;;;;;;;2.37;2.13;;;30.60;21.50;;;;;;10444999;28;20232;-82
2022/08/01 15:47:49;;;;;;;5.40;2.50;;;30.20;22.20;;;;;;10451167;28;20747;-82
2022/08/01 15:52:54;;;;;;;2.63;1.70;;;29.60;23.30;;;;;;10443228;28;20316;-81
2022/08/01 15:57:57;;;;;;;1.30;1.20;;;28.70;24.30;;;;;;10444801;28;20225;-80
2022/08/01 16:03:00;;;;;;;1.33;1.20;;;28.00;24.20;;;;;;10448333;28;20225;-80
2022/08/01 16:08:05;;;;;;;1.40;1.27;;;27.50;24.90;;;;;;10445220;28;20569;-80
2022/08/01 16:13:10;;;;;;;2.60;1.50;;;27.20;26.60;;;;;;10448094;28;20229;-81
2022/08/01 16:18:14;;;;;;;1.90;1.60;;;27.10;27.20;;;;;;10447838;28;20232;-80
2022/08/01 16:23:19;;;;;;;3.10;2.07;;;26.90;27.20;;;;;;10455279;28;20228;-80
2022/08/01 16:28:22;;;;;;;2.17;1.80;;;26.50;28.50;;;;;;10453715;28;20236;-79
2022/08/01 16:33:25;;;;;;;2.40;2.20;;;26.30;28.30;;;;;;10444761;28;20229;-80
2022/08/01 16:38:50;;;;;;;2.33;1.97;;;26.20;28.70;;;;;;10446361;28;20225;-79
2022/08/01 16:43:53;;;;;;;2.30;2.10;;;26.10;29.80;;;;;;10448117;28;20228;-80
2022/08/01 16:48:56;;;;;;;2.97;2.40;;;26.10;29.20;;;;;;10446202;28;20229;-80
2022/08/01 16:54:01;;;;;;;3.00;2.30;;;26.20;29.40;;;;;;10453647;28;20244;-78
2022/08/01 16:59:04;;;;;;;2.80;2.60;;;26.30;30.60;;;;;;10453530;28;20573;-78
2022/08/01 17:04:10;;;;;;;2.67;2.40;;;26.30;29.90;;;;;;10458680;28;20233;-77
2022/08/01 17:09:15;;;;;;;3.30;3.00;;;26.30;30.10;;;;;;10447843;28;20239;-76
2022/08/01 17:14:18;;;;;;;3.30;2.80;;;26.40;31.60;;;;;;10425963;28;20253;-77
2022/08/01 17:19:21;;;;;;;3.53;2.80;;;26.40;30.30;;;;;;10419173;28;20235;-76
2022/08/01 17:24:36;;;;;;;2.53;2.33;;;26.50;30.50;;;;;;10432980;28;20244;-76
2022/08/01 17:29:40;;;;;;;2.40;2.30;;;26.50;31.50;;;;;;10449957;28;20316;-76
2022/08/01 17:34:46;;;;;;;2.33;2.20;;;26.60;31.00;;;;;;10427297;28;20228;-77
2022/08/01 17:39:50;;;;;;;2.60;2.50;;;26.60;31.20;;;;;;10425216;28;20229;-76
2022/08/01 17:44:54;;;;;;;2.23;2.03;;;26.60;32.30;;;;;;10424819;28;20234;-77
2022/08/01 17:50:01;;;;;;;2.40;2.20;;;26.70;31.50;;;;;;10414556;28;20233;-77
2022/08/01 17:55:07;;;;;;;2.10;1.90;;;26.80;31.30;;;;;;10424910;28;20260;-77
2022/08/01 18:00:30;;;;;;;3.33;1.90;;;26.70;32.40;;;;;;10450765;28;20225;-76
2022/08/01 18:05:34;;;;;;;2.00;1.90;;;26.70;31.50;;;;;;10422153;28;20236;-75
2022/08/01 18:10:41;;;;;;;2.27;2.07;;;26.70;31.70;;;;;;10421105;28;20227;-76
2022/08/01 18:15:45;;;;;;;2.27;2.17;;;26.70;32.80;;;;;;10444901;28;20225;-76
2022/08/01 18:20:52;;;;;;;2.53;2.33;;;26.60;32.10;;;;;;10448866;28;20705;-77
2022/08/01 18:26:01;;;;;;;2.30;2.17;;;26.60;32.30;;;;;;10419855;28;20311;-77
2022/08/01 18:31:06;;;;;;;3.10;2.50;;;26.60;33.40;;;;;;10425996;28;20240;-77
2022/08/01 18:36:09;;;;;;;2.97;2.77;;;26.60;33.70;;;;;;10458277;28;20739;-77
2022/08/01 18:41:35;;;;;;;2.97;2.70;;;26.60;32.80;;;;;;10448688;28;20225;-77
2022/08/01 18:46:39;;;;;;;3.60;3.10;;;26.50;33.70;;;;;;10440979;28;20255;-76
2022/08/01 18:51:44;;;;;;;3.40;3.10;;;26.40;33.60;;;;;;10425348;28;20235;-75
2022/08/01 18:56:49;;;;;;;3.20;3.00;;;26.30;33.40;;;;;;10433476;28;20321;-76
2022/08/01 19:01:52;;;;;;;4.87;3.50;;;26.20;34.60;;;;;;10449027;28;20599;-78
2022/08/01 19:06:55;;;;;;;3.40;3.17;;;26.10;33.70;;;;;;10445154;28;20232;-78
2022/08/01 19:12:09;;;;;;;4.03;3.50;;;26.10;34.30;;;;;;10452776;28;20229;-77
2022/08/01 19:17:32;;;;;;;3.23;3.03;;;26.00;35.50;;;;;;10442810;28;20223;-76
2022/08/01 19:22:35;;;;;;;3.60;3.30;;;26.00;35.10;;;;;;10417196;28;20228;-75
2022/08/01 19:27:44;;;;;;;2.53;2.40;;;25.90;34.60;;;;;;10440469;28;20225;-76
2022/08/01 19:32:49;;;;;;;2.40;2.30;;;25.90;36.60;;;;;;10442425;28;20233;-77
2022/08/01 19:37:53;;;;;;;2.13;2.03;;;25.80;34.80;;;;;;10444083;28;20221;-76
2022/08/01 19:42:59;;;;;;;2.00;1.90;;;25.70;34.40;;;;;;10448483;28;20320;-76
2022/08/01 19:48:05;;;;;;;1.80;1.70;;;25.50;34.90;;;;;;10446053;28;20232;-76
2022/08/01 19:53:11;;;;;;;1.70;1.60;;;25.40;35.30;;;;;;10438662;28;20229;-78
2022/08/01 19:58:20;;;;;;;2.07;1.60;;;25.20;35.20;;;;;;10421532;28;20233;-77
2022/08/01 20:03:33;;;;;;;1.80;1.70;;;25.10;35.70;;;;;;10440354;28;20235;-78
2022/08/01 20:08:37;;;;;;;1.80;1.70;;;25.10;34.90;;;;;;10416029;28;20228;-77
2022/08/01 20:13:42;;;;;;;1.77;1.67;;;25.00;34.90;;;;;;10429154;28;20230;-75
2022/08/01 20:18:45;;;;;;;1.83;1.73;;;25.00;35.90;;;;;;10430453;28;20225;-76
2022/08/01 20:23:52;;;;;;;2.30;1.80;;;25.10;35.50;;;;;;10421033;28;20248;-76
2022/08/01 20:29:06;;;;;;;1.63;1.53;;;25.10;36.20;;;;;;10451449;28;20224;-76
2022/08/01 20:34:11;;;;;;;1.60;1.57;;;25.10;35.70;;;;;;10449696;28;20574;-76
2022/08/01 20:39:19;;;;;;;2.17;1.60;;;25.10;35.50;;;;;;10423197;28;20285;-75
2022/08/01 20:44:30;;;;;;;2.23;2.10;;;25.00;35.80;;;;;;10417030;28;20241;-75
2022/08/01 20:49:35;;;;;;;2.03;1.93;;;25.00;36.50;;;;;;10437008;28;20248;-75
2022/08/01 20:54:39;;;;;;;1.73;1.63;;;25.10;36.00;;;;;;10443789;28;20312;-75
2022/08/01 20:59:48;;;;;;;2.20;2.00;;;25.10;35.80;;;;;;10439136;28;20231;-76
2022/08/01 21:05:04;;;;;;;2.10;2.00;;;25.10;37.00;;;;;;10449408;28;20320;-76
2022/08/01 21:10:09;;;;;;;2.00;1.90;;;25.10;37.40;;;;;;10424561;28;20225;-76
2022/08/01 21:15:21;;;;;;;2.20;2.00;;;25.10;36.40;;;;;;10448166;28;20254;-75
2022/08/01 21:20:30;;;;;;;2.90;2.20;;;25.00;37.30;;;;;;10435881;28;20220;-76
2022/08/01 21:25:36;;;;;;;2.87;2.20;;;24.90;36.90;;;;;;10426454;28;20237;-78
2022/08/01 21:30:41;;;;;;;2.37;1.90;;;24.80;37.30;;;;;;10445188;28;20224;-75
2022/08/01 21:35:58;;;;;;;2.77;2.17;;;24.70;37.10;;;;;;10435498;28;20235;-75
2022/08/01 21:41:08;;;;;;;2.00;1.90;;;24.60;36.80;;;;;;10440083;28;20591;-75
2022/08/01 21:46:15;;;;;;;2.07;1.87;;;24.50;36.80;;;;;;10433439;28;20225;-75
2022/08/01 21:51:32;;;;;;;1.90;1.80;;;24.50;37.50;;;;;;10440866;28;20600;-75
2022/08/01 21:56:47;;;;;;;2.10;2.00;;;24.40;37.60;;;;;;10431651;28;20225;-76
2022/08/01 22:01:58;;;;;;;2.03;1.90;;;24.30;37.30;;;;;;10439402;28;20226;-75
2022/08/01 22:07:04;;;;;;;2.07;1.97;;;24.10;37.60;;;;;;10441952;28;20217;-75
2022/08/01 22:12:08;;;;;;;2.27;1.90;;;24.00;37.40;;;;;;10418740;28;20230;-76
2022/08/01 22:17:21;;;;;;;2.10;2.00;;;23.90;37.40;;;;;;10435731;28;20233;-75
2022/08/01 22:22:26;;;;;;;2.43;1.97;;;23.80;38.50;;;;;;10439614;28;20233;-75
2022/08/01 22:27:49;;;;;;;2.03;1.93;;;23.80;38.00;;;;;;10429021;28;20225;-75
2022/08/01 22:33:15;;;;;;;2.60;2.07;;;23.70;37.80;;;;;;10439088;28;20231;-76
2022/08/01 22:38:22;;;;;;;2.37;2.17;;;23.70;38.90;;;;;;10427907;28;20220;-75
2022/08/01 22:43:29;;;;;;;1.87;1.77;;;23.70;38.20;;;;;;10434521;28;20225;-75
2022/08/01 22:48:41;;;;;;;1.90;1.80;;;23.60;38.50;;;;;;10438822;28;20213;-75
2022/08/01 22:53:54;;;;;;;2.20;2.00;;;23.60;39.60;;;;;;10443851;28;20225;-77
2022/08/01 22:59:02;;;;;;;2.20;2.03;;;23.60;39.70;;;;;;10445895;28;20579;-76
2022/08/01 23:04:09;;;;;;;1.97;1.87;;;23.70;39.40;;;;;;10438556;28;20231;-76
2022/08/01 23:09:13;;;;;;;2.47;2.00;;;23.80;39.70;;;;;;10420400;28;20229;-77
2022/08/01 23:14:19;;;;;;;2.53;2.00;;;23.80;38.50;;;;;;10432227;28;20584;-76
2022/08/01 23:19:26;;;;;;;2.10;2.00;;;23.90;38.40;;;;;;10445121;28;20239;-76
2022/08/01 23:24:30;;;;;;;2.20;2.10;;;23.90;39.20;;;;;;10437196;28;20222;-76
2022/08/01 23:29:33;;;;;;;2.03;1.93;;;24.00;38.30;;;;;;10439362;28;20697;-76
2022/08/01 23:34:38;;;;;;;2.70;2.00;;;24.00;38.20;;;;;;10429636;28;20595;-76
2022/08/01 23:39:43;;;;;;;1.90;1.80;;;24.00;38.60;;;;;;10445212;28;20227;-76
2022/08/01 23:44:47;;;;;;;2.60;2.00;;;24.00;38.10;;;;;;10449900;28;20235;-76
2022/08/01 23:49:52;;;;;;;2.17;2.00;;;24.00;38.20;;;;;;10444358;28;20231;-76
2022/08/01 23:54:56;;;;;;;2.00;1.80;;;24.00;38.70;;;;;;10444466;28;20240;-76
